Airfield :
LOGIN :

Register | Disclaimer

   EN    FR    IT 

 










Legend :    VFR   Marginal VFR   IFR   Intensive IFR   Very Intensive IFR
Visi :
Ceiling :
>= 8 km
>= 3000ft
5 to 8 km
1000 to 3000 ft
1500m to 5 km
500 to 1000 ft
800 to 1500m
200 to 500 ft
< 800m
< 200 ft
Symbols :   Thunderstorms  Fog  Heavy snow  Heavy precipitations  Wind > 20 kt
SIGMETs :     Misc.  Thunderstorms  Icing  Turbulence  Mountain Waves  Volcanic Ashes







- Airport Elevation : 13 ft
- IATA code : GOA


LIMJ - Genoa Cristoforo Colombo

CURRENT METAR :
  • 261250Z 14007KT 110V170 9999 FEW028 SCT060 15/07 Q1018

EXPIRED METARs :
  • 261220Z 12006KT 090V150 9999 FEW028 SCT060 15/07 Q1019
  • 261150Z 12007KT 090V160 9999 SCT028 SCT060 14/06 Q1019
  • 261120Z 12005KT 080V180 9999 FEW022 BKN058 14/06 Q1019
  • 261050Z 13003KT 060V180 9999 FEW022 BKN058 14/07 Q1019
  • 261020Z 15003KT 080V190 9999 FEW024 BKN058 13/07 Q1019
  • 260950Z VRB02KT 9999 FEW024 BKN058 14/06 Q1019

TAF TAF LIMJ
Valid from the 26 at 12:00 until the 27 at 12:00 UTC


261100Z 2612/2712 17010KT 9999 SCT025 BKN060
No reported NOTAMs for that airfield.



MET'MAP, your aeronautical weather chart ! - Copyright ORBIFLY December 2007 - Disclaimer

ORBIFLY MET'MAP TEAM :

Programming & Development : Alexandra Zaïnal
Concept & Development : Baudouin d'Aumeries
Co-Development & Prog : Marc-Olivier Méhu
Technical & hardware support : Manuel Goepfert

Contact : metmap@orbifly.com




SOURCES & CREDITS :

   NOAA